Time;durP1;ratioP1;P1;durP2;ratioP2;P2;SDS_P1;SDS_P2;PMS_P1;PMS_P2;Temp;Humidity;BMP_temperature;BMP_pressure;BME280_temperature;BME280_humidity;BME280_pressure;Samples;Min_cycle;Max_cycle;Signal;HPM_P1;HPM_P2
2022/05/01 00:01:35;;;;;;;24.38;12.50;;;7.90;99.90;;;;;;5052047;28;20123;-72
2022/05/01 00:04:00;;;;;;;21.48;12.13;;;7.80;99.90;;;;;;5043801;28;20052;-72
2022/05/01 00:06:26;;;;;;;23.42;13.10;;;7.80;99.90;;;;;;5041366;28;20086;-72
2022/05/01 00:08:52;;;;;;;23.27;13.77;;;7.80;99.90;;;;;;5022499;28;20073;-71
2022/05/01 00:11:17;;;;;;;24.65;12.20;;;7.80;99.90;;;;;;5043499;28;20051;-71
2022/05/01 00:13:44;;;;;;;23.65;12.45;;;7.80;99.90;;;;;;5046883;28;20032;-71
2022/05/01 00:16:10;;;;;;;26.05;14.20;;;7.70;99.90;;;;;;5044218;28;20140;-72
2022/05/01 00:18:36;;;;;;;24.02;13.48;;;7.70;99.90;;;;;;5044638;28;20466;-72
2022/05/01 00:21:02;;;;;;;23.38;13.55;;;7.70;99.90;;;;;;5030668;28;20120;-72
2022/05/01 00:23:28;;;;;;;24.70;13.85;;;7.70;99.90;;;;;;5042608;28;20123;-71
2022/05/01 00:25:53;;;;;;;27.55;13.45;;;7.70;99.90;;;;;;5045649;28;20136;-72
2022/05/01 00:28:19;;;;;;;27.83;13.32;;;7.70;99.90;;;;;;5046939;28;20029;-71
2022/05/01 00:30:44;;;;;;;25.17;14.00;;;7.70;99.90;;;;;;5029807;28;20037;-72
2022/05/01 00:38:39;;;;;;;24.92;13.80;;;7.70;99.90;;;;;;5041664;28;20048;-72
2022/05/01 00:41:07;;;;;;;26.63;14.40;;;7.70;99.90;;;;;;5026463;28;20044;-72
2022/05/01 00:43:53;;;;;;;25.35;13.98;;;7.70;99.90;;;;;;5023095;28;20132;-72
2022/05/01 00:46:19;;;;;;;24.58;14.05;;;7.70;99.90;;;;;;5042204;28;20045;-72
2022/05/01 00:48:44;;;;;;;24.98;14.18;;;7.70;99.90;;;;;;5041835;28;20446;-72
2022/05/01 00:51:10;;;;;;;25.65;14.10;;;7.70;99.90;;;;;;5041790;28;20150;-72
2022/05/01 00:53:36;;;;;;;23.38;14.07;;;7.70;99.90;;;;;;5043951;28;20083;-72
2022/05/01 00:56:02;;;;;;;23.90;14.27;;;7.70;99.90;;;;;;5044877;28;20477;-72
2022/05/01 00:58:29;;;;;;;28.27;14.75;;;7.70;99.90;;;;;;5031296;28;20059;-72
2022/05/01 01:00:55;;;;;;;28.10;14.27;;;7.70;99.90;;;;;;5028393;28;20044;-72
2022/05/01 01:03:21;;;;;;;28.02;15.10;;;7.70;99.90;;;;;;5043720;28;20357;-72
2022/05/01 01:05:47;;;;;;;26.13;15.05;;;7.60;99.90;;;;;;5044038;28;20087;-72
2022/05/01 01:08:13;;;;;;;27.00;14.02;;;7.60;99.90;;;;;;5032767;28;20032;-72
2022/05/01 01:10:38;;;;;;;29.67;14.82;;;7.60;99.90;;;;;;5044642;28;20043;-71
2022/05/01 01:13:04;;;;;;;26.27;14.80;;;7.60;99.90;;;;;;5045963;28;20490;-72
2022/05/01 01:15:30;;;;;;;29.17;14.52;;;7.60;99.90;;;;;;5046345;28;20037;-72
2022/05/01 01:17:56;;;;;;;26.70;14.35;;;7.60;99.90;;;;;;5031084;28;20170;-72
2022/05/01 01:20:25;;;;;;;25.88;14.05;;;7.60;99.90;;;;;;5041910;28;20095;-72
2022/05/01 01:22:55;;;;;;;27.88;14.18;;;7.50;99.90;;;;;;5045663;28;20460;-73
2022/05/01 01:25:24;;;;;;;26.80;14.93;;;7.60;99.90;;;;;;5042457;28;20760;-72
2022/05/01 01:27:51;;;;;;;27.75;15.68;;;7.60;99.90;;;;;;5039606;28;20122;-72
2022/05/01 01:33:02;;;;;;;33.28;16.23;;;7.60;99.90;;;;;;5040281;28;20048;-72
2022/05/01 01:35:29;;;;;;;28.15;15.02;;;7.60;99.90;;;;;;5042263;28;20045;-72
2022/05/01 01:37:55;;;;;;;28.73;15.55;;;7.60;99.90;;;;;;5048700;28;20036;-72
2022/05/01 01:40:23;;;;;;;31.23;15.43;;;7.60;99.90;;;;;;5046395;28;20028;-72
2022/05/01 01:42:55;;;;;;;29.73;15.18;;;7.50;99.90;;;;;;5042534;28;20044;-72
2022/05/01 01:45:20;;;;;;;31.23;16.45;;;7.50;99.90;;;;;;5060123;28;20050;-72
2022/05/01 01:47:49;;;;;;;30.15;15.73;;;7.50;99.90;;;;;;5024464;28;20479;-72
2022/05/01 01:50:17;;;;;;;28.70;16.13;;;7.50;99.90;;;;;;5040839;28;20048;-72
2022/05/01 01:52:47;;;;;;;29.55;16.10;;;7.50;99.90;;;;;;5027009;28;20036;-72
2022/05/01 01:55:17;;;;;;;30.30;15.52;;;7.50;99.90;;;;;;5042316;28;20396;-72
2022/05/01 01:57:45;;;;;;;28.55;15.98;;;7.50;99.90;;;;;;5041976;28;20083;-72
2022/05/01 02:00:11;;;;;;;29.10;16.08;;;7.50;99.90;;;;;;5041985;28;20037;-72
2022/05/01 02:02:37;;;;;;;31.95;16.27;;;7.50;99.90;;;;;;5044858;28;20407;-72
2022/05/01 02:05:04;;;;;;;30.60;16.63;;;7.50;99.90;;;;;;5044628;28;20056;-72
2022/05/01 02:07:30;;;;;;;36.00;15.98;;;7.40;99.90;;;;;;5030856;28;20051;-72
2022/05/01 02:09:56;;;;;;;30.30;15.07;;;7.40;99.90;;;;;;5041713;28;20052;-72
2022/05/01 02:12:22;;;;;;;31.17;16.70;;;7.40;99.90;;;;;;5043376;28;20044;-72
2022/05/01 02:14:48;;;;;;;31.70;16.35;;;7.40;99.90;;;;;;5040665;28;20086;-72
2022/05/01 02:17:13;;;;;;;32.65;16.38;;;7.50;99.90;;;;;;5041005;28;20103;-72
2022/05/01 02:19:39;;;;;;;29.60;15.98;;;7.50;99.90;;;;;;5056749;28;20075;-72
2022/05/01 02:22:04;;;;;;;32.53;16.42;;;7.50;99.90;;;;;;5043606;28;20128;-72
2022/05/01 02:24:31;;;;;;;29.00;15.60;;;7.50;99.90;;;;;;5043246;28;20041;-72
2022/05/01 02:26:56;;;;;;;30.88;15.50;;;7.40;99.90;;;;;;5041629;28;20044;-72
2022/05/01 02:29:22;;;;;;;28.00;15.02;;;7.50;99.90;;;;;;5044477;28;20056;-71
2022/05/01 02:31:53;;;;;;;29.55;15.82;;;7.50;99.90;;;;;;5042440;28;20059;-71
2022/05/01 02:34:21;;;;;;;31.65;16.85;;;7.40;99.90;;;;;;5028042;28;20559;-72
2022/05/01 02:36:46;;;;;;;26.60;15.98;;;7.40;99.90;;;;;;5038833;28;20124;-72
2022/05/01 02:39:13;;;;;;;28.58;16.23;;;7.40;99.90;;;;;;5041687;28;20123;-71
2022/05/01 02:41:39;;;;;;;34.28;16.85;;;7.40;99.90;;;;;;5042433;28;20094;-71
2022/05/01 02:44:04;;;;;;;38.05;16.90;;;7.40;99.90;;;;;;5041156;28;20045;-71
2022/05/01 02:46:31;;;;;;;31.15;16.50;;;7.40;99.90;;;;;;5043400;28;20041;-71
2022/05/01 02:48:56;;;;;;;32.28;16.85;;;7.40;99.90;;;;;;5045797;28;20542;-71
2022/05/01 02:51:22;;;;;;;30.30;15.70;;;7.30;99.90;;;;;;5047389;28;20029;-72
2022/05/01 02:53:48;;;;;;;33.90;17.65;;;7.40;99.90;;;;;;5041631;28;20040;-72
2022/05/01 02:56:13;;;;;;;33.97;17.67;;;7.30;99.90;;;;;;5044595;28;20041;-71
2022/05/01 02:58:39;;;;;;;33.22;17.45;;;7.30;99.90;;;;;;5046668;28;20071;-71
2022/05/01 03:01:04;;;;;;;32.55;17.15;;;7.30;99.90;;;;;;5045779;28;20106;-71
2022/05/01 03:03:30;;;;;;;32.88;17.23;;;7.30;99.90;;;;;;5045667;28;20400;-71
2022/05/01 03:05:58;;;;;;;34.95;18.50;;;7.30;99.90;;;;;;5045767;28;20521;-72
2022/05/01 03:08:24;;;;;;;31.80;16.63;;;7.20;99.90;;;;;;5049352;28;20083;-71
2022/05/01 03:10:50;;;;;;;35.50;18.25;;;7.30;99.90;;;;;;5031513;28;20040;-72
2022/05/01 03:13:17;;;;;;;36.95;18.50;;;7.20;99.90;;;;;;5050218;28;20043;-71
2022/05/01 03:15:43;;;;;;;40.50;19.33;;;7.20;99.90;;;;;;5048553;28;20116;-71
2022/05/01 03:23:37;;;;;;;35.95;19.50;;;7.10;99.90;;;;;;5047373;28;20051;-72
2022/05/01 03:26:03;;;;;;;39.33;19.77;;;7.10;99.90;;;;;;5048843;28;20044;-72
2022/05/01 03:28:29;;;;;;;34.22;17.75;;;7.10;99.90;;;;;;5033610;28;20480;-71
2022/05/01 03:30:56;;;;;;;37.53;19.30;;;7.10;99.90;;;;;;5028464;28;20039;-71
2022/05/01 03:33:22;;;;;;;39.60;19.33;;;7.10;99.90;;;;;;5045769;28;20076;-71
2022/05/01 03:35:49;;;;;;;39.95;19.10;;;7.00;99.90;;;;;;5046648;28;20091;-72
2022/05/01 03:38:16;;;;;;;39.25;19.80;;;7.00;99.90;;;;;;5046872;28;20055;-71
2022/05/01 03:40:43;;;;;;;34.95;18.88;;;7.00;99.90;;;;;;5029524;28;20041;-71
2022/05/01 03:43:08;;;;;;;40.63;18.58;;;6.90;99.90;;;;;;5045282;28;20048;-71
2022/05/01 03:45:34;;;;;;;31.88;18.27;;;6.90;99.90;;;;;;5029491;28;20049;-71
2022/05/01 03:48:00;;;;;;;34.40;18.73;;;6.90;99.90;;;;;;5045285;28;20098;-71
2022/05/01 03:50:26;;;;;;;34.47;18.45;;;6.90;99.90;;;;;;5042685;28;20037;-71
2022/05/01 03:52:51;;;;;;;33.65;18.52;;;6.90;99.90;;;;;;5040934;28;20143;-71
2022/05/01 03:55:17;;;;;;;36.20;18.33;;;6.80;99.90;;;;;;5042036;28;20151;-71
2022/05/01 03:57:43;;;;;;;37.35;18.40;;;6.90;99.90;;;;;;5044298;28;20032;-71
2022/05/01 04:00:10;;;;;;;37.30;18.52;;;6.80;99.90;;;;;;5044876;28;20063;-71
2022/05/01 04:02:42;;;;;;;38.75;18.05;;;6.80;99.90;;;;;;5042567;28;20087;-71
2022/05/01 04:05:10;;;;;;;36.83;18.83;;;6.70;99.90;;;;;;5058009;28;20532;-71
2022/05/01 04:07:35;;;;;;;34.78;17.48;;;6.70;99.90;;;;;;5042437;28;20492;-71
2022/05/01 04:10:01;;;;;;;34.65;18.02;;;6.70;99.90;;;;;;5043421;28;20041;-72
2022/05/01 04:12:26;;;;;;;34.05;17.98;;;6.70;99.90;;;;;;5044309;28;20082;-71
2022/05/01 04:14:52;;;;;;;37.83;18.40;;;6.60;99.90;;;;;;5044454;28;20045;-72
2022/05/01 04:17:17;;;;;;;33.97;17.95;;;6.60;99.90;;;;;;5045400;28;20044;-71
2022/05/01 04:19:43;;;;;;;38.67;19.17;;;6.60;99.90;;;;;;5026983;28;20041;-71
2022/05/01 04:22:08;;;;;;;37.25;18.80;;;6.50;99.90;;;;;;5045236;28;20080;-71
2022/05/01 04:24:34;;;;;;;36.55;18.98;;;6.50;99.90;;;;;;5045117;28;20141;-71
2022/05/01 04:26:59;;;;;;;39.25;18.95;;;6.50;99.90;;;;;;5043217;28;20484;-71
2022/05/01 04:29:37;;;;;;;37.20;18.65;;;6.50;99.90;;;;;;5026975;28;20044;-71
2022/05/01 04:32:07;;;;;;;36.88;18.85;;;6.50;99.90;;;;;;5027219;28;20037;-72
2022/05/01 04:34:33;;;;;;;38.78;18.67;;;6.40;99.90;;;;;;5044606;28;20041;-72
2022/05/01 04:36:59;;;;;;;32.00;17.77;;;6.40;99.90;;;;;;5039846;28;20041;-72
2022/05/01 04:39:25;;;;;;;35.78;18.00;;;6.40;99.90;;;;;;5040435;28;20048;-72
2022/05/01 04:41:51;;;;;;;35.88;18.65;;;6.40;99.90;;;;;;5041759;28;20041;-72
2022/05/01 04:44:17;;;;;;;36.30;18.85;;;6.40;99.90;;;;;;5040436;28;20037;-72
2022/05/01 04:46:43;;;;;;;37.92;18.65;;;6.40;99.90;;;;;;5027955;28;20118;-72
2022/05/01 04:49:09;;;;;;;37.42;19.42;;;6.40;99.90;;;;;;5041837;28;20048;-72
2022/05/01 04:51:35;;;;;;;37.67;18.55;;;6.40;99.90;;;;;;5044783;28;20037;-72
2022/05/01 04:54:00;;;;;;;38.05;19.10;;;6.30;99.90;;;;;;5041732;28;20488;-72
2022/05/01 04:59:10;;;;;;;37.20;19.05;;;6.20;99.90;;;;;;5042917;28;20106;-71
2022/05/01 05:01:36;;;;;;;38.38;18.15;;;6.20;99.90;;;;;;5026110;28;20379;-72
2022/05/01 05:04:03;;;;;;;38.83;19.80;;;6.10;99.90;;;;;;5043800;28;20418;-72
2022/05/01 05:06:29;;;;;;;36.05;18.75;;;6.20;99.90;;;;;;5045832;28;20128;-72
2022/05/01 05:11:39;;;;;;;38.05;19.38;;;6.40;99.90;;;;;;5043026;28;20052;-71
2022/05/01 05:14:05;;;;;;;35.72;17.90;;;6.40;99.90;;;;;;5040841;28;20037;-72
2022/05/01 05:16:31;;;;;;;36.38;18.20;;;6.30;99.90;;;;;;5045749;28;20052;-72
2022/05/01 05:18:56;;;;;;;38.75;19.92;;;6.30;99.90;;;;;;5044907;28;20400;-72
2022/05/01 05:21:22;;;;;;;38.25;19.63;;;6.20;99.90;;;;;;5042836;28;20041;-72
2022/05/01 05:23:47;;;;;;;45.30;20.65;;;6.10;99.90;;;;;;5052518;28;20444;-72
2022/05/01 05:26:13;;;;;;;38.00;20.40;;;6.20;99.90;;;;;;5043041;28;20055;-71
2022/05/01 05:28:39;;;;;;;41.28;19.80;;;6.30;99.90;;;;;;5040411;28;20033;-72
2022/05/01 05:31:04;;;;;;;41.42;20.40;;;6.30;99.90;;;;;;5037131;28;20047;-72
2022/05/01 05:33:30;;;;;;;36.60;19.30;;;6.30;99.90;;;;;;5044666;28;20072;-72
2022/05/01 05:35:55;;;;;;;40.63;20.15;;;6.40;99.90;;;;;;5041015;28;20118;-72
2022/05/01 05:38:21;;;;;;;43.67;21.17;;;6.40;99.90;;;;;;5043042;28;20037;-72
2022/05/01 05:40:46;;;;;;;52.75;24.10;;;6.40;99.90;;;;;;5043400;28;20443;-73
2022/05/01 05:43:12;;;;;;;48.78;23.23;;;6.60;99.90;;;;;;5041804;28;20041;-73
2022/05/01 05:45:38;;;;;;;52.58;24.73;;;6.70;99.90;;;;;;5043177;28;20126;-72
2022/05/01 05:48:04;;;;;;;46.75;22.83;;;6.90;99.90;;;;;;5041157;28;20052;-73
2022/05/01 05:50:30;;;;;;;46.53;23.83;;;7.10;99.90;;;;;;5072378;28;20040;-73
2022/05/01 05:52:55;;;;;;;56.78;25.83;;;7.40;99.90;;;;;;5023526;28;20396;-72
2022/05/01 05:55:21;;;;;;;52.45;25.35;;;7.50;99.90;;;;;;5040213;28;20789;-71
2022/05/01 05:57:46;;;;;;;54.50;26.63;;;7.70;99.90;;;;;;5040434;28;20103;-72
2022/05/01 06:00:13;;;;;;;50.78;25.40;;;7.90;99.90;;;;;;5025643;28;20864;-72
2022/05/01 06:02:42;;;;;;;49.20;25.85;;;8.20;99.90;;;;;;5041141;28;20444;-71
2022/05/01 06:05:08;;;;;;;48.42;25.65;;;8.40;99.90;;;;;;5039104;28;20055;-72
2022/05/01 06:07:33;;;;;;;49.72;24.33;;;8.70;99.90;;;;;;5039482;28;20037;-71
2022/05/01 06:09:59;;;;;;;46.67;23.73;;;8.80;99.90;;;;;;5040905;28;20043;-72
2022/05/01 06:12:25;;;;;;;46.35;23.70;;;8.90;99.90;;;;;;5039052;28;20044;-72
2022/05/01 06:14:51;;;;;;;44.63;23.15;;;8.90;99.90;;;;;;5041541;28;20042;-72
2022/05/01 06:17:16;;;;;;;45.45;23.02;;;9.00;99.90;;;;;;5043223;28;20052;-72
2022/05/01 06:19:42;;;;;;;42.55;22.70;;;9.00;99.90;;;;;;5041964;28;20032;-72
2022/05/01 06:22:07;;;;;;;45.08;23.05;;;9.10;99.90;;;;;;5041903;28;20041;-71
2022/05/01 06:24:33;;;;;;;42.50;22.08;;;9.10;99.90;;;;;;5041445;28;20499;-71
2022/05/01 06:26:58;;;;;;;39.67;21.50;;;9.30;99.90;;;;;;5039651;28;20041;-71
2022/05/01 06:29:24;;;;;;;38.60;20.75;;;9.30;99.90;;;;;;5039239;28;20069;-71
2022/05/01 06:31:50;;;;;;;39.03;21.60;;;9.40;99.90;;;;;;5043862;28;20048;-73
2022/05/01 06:34:16;;;;;;;40.35;21.45;;;9.40;99.90;;;;;;5060291;28;20036;-72
2022/05/01 06:36:42;;;;;;;39.65;21.92;;;9.50;99.90;;;;;;5032391;28;20119;-72
2022/05/01 06:39:11;;;;;;;38.28;21.65;;;9.60;99.90;;;;;;5039868;28;20480;-71
2022/05/01 06:41:37;;;;;;;39.88;22.00;;;9.70;99.90;;;;;;5046118;28;20037;-72
2022/05/01 06:44:03;;;;;;;40.13;21.70;;;9.80;99.90;;;;;;5042376;28;20052;-74
2022/05/01 06:46:29;;;;;;;40.95;22.52;;;10.10;99.90;;;;;;5041656;28;20041;-73
2022/05/01 06:48:55;;;;;;;40.50;22.38;;;10.20;99.90;;;;;;5042741;28;20044;-72
2022/05/01 06:51:20;;;;;;;42.22;22.38;;;10.30;99.90;;;;;;5044367;28;20040;-73
2022/05/01 06:53:45;;;;;;;35.90;20.88;;;10.40;99.90;;;;;;5046802;28;20037;-73
2022/05/01 06:56:11;;;;;;;38.25;21.88;;;10.40;99.90;;;;;;5047104;28;20056;-73
2022/05/01 06:58:37;;;;;;;40.25;22.40;;;10.40;99.90;;;;;;5046981;28;20075;-73
2022/05/01 07:01:02;;;;;;;41.40;22.83;;;10.30;99.90;;;;;;5046124;28;20514;-72
2022/05/01 07:03:28;;;;;;;45.38;23.38;;;10.30;99.90;;;;;;5044607;28;20041;-73
2022/05/01 07:05:53;;;;;;;42.90;23.30;;;10.30;99.90;;;;;;5046934;28;20408;-73
2022/05/01 07:08:19;;;;;;;44.83;24.05;;;10.30;99.90;;;;;;5047068;28;20040;-72
2022/05/01 07:10:45;;;;;;;43.22;22.13;;;10.30;99.90;;;;;;5045068;28;20118;-73
2022/05/01 07:13:11;;;;;;;37.53;20.85;;;10.40;99.90;;;;;;5041508;28;20038;-72
2022/05/01 07:15:38;;;;;;;34.15;18.90;;;10.50;99.90;;;;;;5022273;28;20506;-72
2022/05/01 07:18:04;;;;;;;34.00;19.40;;;10.60;99.90;;;;;;5040061;28;20041;-73
2022/05/01 07:20:33;;;;;;;32.78;19.08;;;10.70;99.90;;;;;;5042333;28;20042;-73
2022/05/01 07:22:58;;;;;;;36.13;18.63;;;10.70;99.90;;;;;;5043137;28;20047;-73
2022/05/01 07:25:24;;;;;;;33.90;18.77;;;10.70;99.90;;;;;;5042900;28;20044;-74
2022/05/01 07:27:49;;;;;;;30.55;18.60;;;10.80;99.90;;;;;;5044008;28;20052;-73
2022/05/01 07:30:15;;;;;;;33.13;18.02;;;11.00;99.90;;;;;;5043391;28;20384;-74
2022/05/01 07:32:40;;;;;;;32.00;18.58;;;11.20;99.90;;;;;;5040000;28;20033;-76
2022/05/01 07:35:06;;;;;;;35.80;18.13;;;11.30;99.90;;;;;;5042309;28;20041;-73
2022/05/01 07:37:32;;;;;;;37.00;19.20;;;11.30;99.90;;;;;;5047321;28;20040;-74
2022/05/01 07:39:57;;;;;;;34.22;19.10;;;11.40;99.90;;;;;;5045315;28;20407;-72
2022/05/01 07:42:23;;;;;;;34.05;19.25;;;11.50;99.90;;;;;;5044874;28;20044;-73
2022/05/01 07:44:50;;;;;;;34.05;18.92;;;11.60;99.90;;;;;;5048249;28;20032;-74
2022/05/01 07:47:15;;;;;;;34.15;19.38;;;11.70;99.90;;;;;;5045406;28;20090;-73
2022/05/01 07:49:41;;;;;;;36.55;19.15;;;11.80;99.90;;;;;;5039241;28;20514;-74
2022/05/01 07:52:06;;;;;;;32.63;17.92;;;11.80;99.90;;;;;;5038669;28;20033;-72
2022/05/01 07:54:32;;;;;;;31.50;17.67;;;11.80;99.90;;;;;;5043000;28;20044;-72
2022/05/01 07:56:57;;;;;;;31.08;17.25;;;11.60;99.90;;;;;;5043507;28;20052;-76
2022/05/01 07:59:23;;;;;;;33.92;17.80;;;11.60;99.90;;;;;;5040216;28;20076;-74
2022/05/01 08:01:48;;;;;;;32.10;18.63;;;11.60;99.90;;;;;;5047947;28;20036;-74
2022/05/01 08:04:29;;;;;;;36.53;19.02;;;11.50;99.90;;;;;;5048444;28;20044;-75
2022/05/01 08:07:04;;;;;;;40.03;18.92;;;11.50;99.90;;;;;;5046252;28;20548;-75
2022/05/01 08:09:31;;;;;;;28.83;16.20;;;11.50;99.90;;;;;;5042226;28;20033;-74
2022/05/01 08:11:57;;;;;;;24.85;14.73;;;11.50;99.90;;;;;;5045449;28;20130;-74
2022/05/01 08:14:23;;;;;;;28.38;14.75;;;11.50;99.90;;;;;;5047479;28;20048;-73
2022/05/01 08:16:49;;;;;;;28.17;14.80;;;11.50;99.90;;;;;;5046735;28;20040;-73
2022/05/01 08:22:00;;;;;;;24.02;14.27;;;11.50;99.90;;;;;;5060580;28;20122;-73
2022/05/01 08:24:26;;;;;;;24.30;13.98;;;11.60;99.90;;;;;;5056205;28;20041;-73
2022/05/01 08:26:51;;;;;;;25.13;14.00;;;11.50;99.90;;;;;;5042836;28;20550;-74
2022/05/01 08:29:17;;;;;;;23.70;12.85;;;11.60;99.90;;;;;;5028105;28;20544;-73
2022/05/01 08:31:43;;;;;;;21.20;11.82;;;11.60;99.90;;;;;;5042392;28;20029;-73
2022/05/01 08:34:09;;;;;;;19.35;11.50;;;11.60;99.90;;;;;;5040097;28;20033;-73
2022/05/01 08:36:36;;;;;;;26.20;12.25;;;11.50;99.90;;;;;;5024859;28;20407;-74
2022/05/01 08:39:02;;;;;;;23.02;13.23;;;11.50;99.90;;;;;;5042539;28;20060;-73
2022/05/01 08:41:30;;;;;;;26.05;13.65;;;11.40;99.90;;;;;;5044279;28;20055;-73
2022/05/01 08:44:00;;;;;;;25.73;13.25;;;11.30;99.90;;;;;;5044549;28;20048;-74
2022/05/01 08:46:53;;;;;;;26.25;13.25;;;11.20;99.90;;;;;;5041677;28;20048;-73
2022/05/01 08:49:20;;;;;;;24.42;12.93;;;11.30;99.90;;;;;;5045779;28;20033;-73
2022/05/01 08:51:46;;;;;;;31.50;13.55;;;11.30;99.90;;;;;;5046587;28;20115;-73
2022/05/01 08:54:13;;;;;;;23.63;12.77;;;11.40;99.90;;;;;;5043526;28;20461;-73
2022/05/01 08:56:41;;;;;;;20.75;12.95;;;11.50;99.90;;;;;;5043558;28;20111;-74
2022/05/01 08:59:12;;;;;;;22.58;12.90;;;11.70;99.90;;;;;;5043780;28;20048;-74
2022/05/01 09:01:43;;;;;;;22.05;12.55;;;11.80;99.90;;;;;;5042362;28;20043;-74
2022/05/01 09:04:12;;;;;;;20.65;12.43;;;12.00;99.90;;;;;;5043666;28;20178;-74
2022/05/01 09:06:38;;;;;;;21.75;12.50;;;12.10;99.90;;;;;;5045558;28;20037;-73
2022/05/01 09:09:05;;;;;;;26.95;14.73;;;12.40;99.90;;;;;;5046785;28;20143;-74
2022/05/01 09:14:14;;;;;;;26.80;14.82;;;13.00;99.90;;;;;;5044215;28;20040;-74
2022/05/01 09:16:40;;;;;;;27.85;14.60;;;13.10;99.90;;;;;;5047761;28;20033;-74
2022/05/01 09:19:05;;;;;;;24.92;14.32;;;13.20;99.90;;;;;;5029776;28;20388;-74
2022/05/01 09:21:52;;;;;;;24.20;13.75;;;13.10;99.90;;;;;;5045353;28;20582;-73
2022/05/01 09:24:29;;;;;;;25.13;14.65;;;13.10;99.90;;;;;;5057164;28;20424;-73
2022/05/01 09:26:55;;;;;;;24.02;14.00;;;13.10;99.90;;;;;;5057112;28;20392;-75
2022/05/01 09:29:23;;;;;;;26.35;14.95;;;13.00;99.90;;;;;;5037547;28;20572;-74
2022/05/01 09:31:52;;;;;;;28.17;15.00;;;12.90;99.90;;;;;;5040530;28;20068;-72
2022/05/01 09:34:28;;;;;;;23.73;13.80;;;13.00;99.90;;;;;;5043125;28;20535;-73
2022/05/01 09:36:55;;;;;;;23.25;14.52;;;13.10;99.90;;;;;;5047049;28;20044;-74
2022/05/01 09:39:23;;;;;;;23.65;13.75;;;13.10;99.90;;;;;;5043988;28;20583;-74
2022/05/01 09:41:50;;;;;;;22.67;13.40;;;13.10;99.90;;;;;;5028366;28;20127;-75
2022/05/01 09:44:16;;;;;;;24.60;13.93;;;13.20;99.90;;;;;;5042521;28;20495;-74
2022/05/01 09:46:49;;;;;;;24.13;13.55;;;13.30;99.90;;;;;;5042851;28;20047;-74
2022/05/01 09:49:19;;;;;;;24.33;13.35;;;13.50;99.90;;;;;;5039720;28;20033;-75
2022/05/01 09:51:56;;;;;;;25.42;14.93;;;13.50;99.90;;;;;;5026831;28;20072;-78
2022/05/01 09:54:27;;;;;;;28.55;14.45;;;13.70;99.90;;;;;;5044030;28;20039;-74
2022/05/01 09:56:53;;;;;;;22.02;13.93;;;13.80;99.90;;;;;;5043133;28;20059;-74
2022/05/01 09:59:21;;;;;;;22.13;12.52;;;13.90;99.90;;;;;;5043648;28;20068;-73
2022/05/01 10:02:02;;;;;;;20.65;11.77;;;14.10;99.90;;;;;;5045663;28;20111;-73
2022/05/01 10:04:28;;;;;;;22.40;13.10;;;14.30;99.90;;;;;;5043994;28;20041;-75
2022/05/01 10:06:55;;;;;;;17.65;10.85;;;14.50;99.90;;;;;;5043591;28;20041;-74
2022/05/01 10:09:26;;;;;;;20.05;12.45;;;14.70;99.90;;;;;;5047298;28;20040;-73
2022/05/01 10:11:55;;;;;;;16.05;10.32;;;14.90;99.90;;;;;;5043004;28;20047;-71
2022/05/01 10:14:21;;;;;;;19.35;10.65;;;14.80;99.90;;;;;;5043327;28;20048;-68
2022/05/01 10:16:46;;;;;;;25.13;12.52;;;14.70;99.90;;;;;;5062103;28;20040;-69
2022/05/01 10:19:15;;;;;;;19.73;11.70;;;14.70;99.90;;;;;;5047491;28;20052;-70
2022/05/01 10:21:48;;;;;;;20.00;11.70;;;14.70;99.90;;;;;;5045765;28;20037;-70
2022/05/01 10:24:17;;;;;;;17.15;11.68;;;14.70;99.90;;;;;;5071388;28;20210;-70
2022/05/01 10:26:54;;;;;;;21.35;11.45;;;14.70;99.90;;;;;;5044495;28;20102;-72
2022/05/01 10:33:09;;;;;;;16.60;9.10;;;15.20;99.90;;;;;;5022163;28;20079;-71
2022/05/01 10:36:06;;;;;;;14.63;9.95;;;15.20;98.80;;;;;;5029164;28;20067;-71
2022/05/01 10:38:52;;;;;;;16.40;9.93;;;15.10;99.90;;;;;;5068865;28;20049;-71
2022/05/01 10:41:18;;;;;;;15.15;9.70;;;15.10;99.90;;;;;;5044197;28;20053;-71
2022/05/01 10:43:55;;;;;;;15.30;9.52;;;15.00;99.90;;;;;;5072705;28;20056;-74
2022/05/01 10:46:21;;;;;;;15.45;9.70;;;15.10;99.90;;;;;;5039969;28;20052;-73
2022/05/01 10:48:48;;;;;;;14.52;8.63;;;15.00;99.90;;;;;;5042680;28;20497;-71
2022/05/01 10:54:10;;;;;;;12.55;8.25;;;14.60;99.90;;;;;;5040113;28;20045;-68
2022/05/01 10:56:50;;;;;;;15.77;8.30;;;14.30;99.90;;;;;;5041971;28;20043;-71
2022/05/01 10:59:34;;;;;;;14.60;8.55;;;14.10;99.90;;;;;;5043190;28;20327;-71
2022/05/01 11:02:05;;;;;;;14.43;8.55;;;14.00;99.90;;;;;;5042476;28;20443;-71
2022/05/01 11:04:42;;;;;;;18.45;9.43;;;13.80;99.90;;;;;;5073616;28;20038;-69
2022/05/01 11:07:13;;;;;;;15.40;8.95;;;13.80;99.90;;;;;;5074162;28;20041;-71
2022/05/01 11:09:42;;;;;;;15.98;9.57;;;13.70;99.90;;;;;;5056437;28;20037;-71
2022/05/01 11:12:08;;;;;;;16.23;9.85;;;13.50;99.90;;;;;;5043093;28;20562;-71
2022/05/01 11:14:52;;;;;;;16.20;9.75;;;13.50;99.90;;;;;;5032308;28;20051;-70
2022/05/01 11:17:28;;;;;;;16.58;9.70;;;13.50;99.90;;;;;;5048005;28;20049;-71
2022/05/01 11:20:02;;;;;;;16.20;9.20;;;13.50;99.90;;;;;;5051691;28;20377;-70
2022/05/01 11:22:28;;;;;;;15.95;9.10;;;13.40;99.90;;;;;;5052369;28;20059;-72
2022/05/01 11:24:53;;;;;;;13.23;8.23;;;13.40;99.90;;;;;;5044996;28;20052;-72
2022/05/01 11:27:21;;;;;;;13.18;6.95;;;13.50;99.90;;;;;;5084772;28;20037;-72
2022/05/01 11:30:06;;;;;;;15.13;8.20;;;13.50;99.90;;;;;;5033296;28;20141;-72
2022/05/01 11:33:03;;;;;;;12.40;7.88;;;13.40;99.90;;;;;;5030951;28;20048;-72
2022/05/01 11:35:50;;;;;;;10.20;7.30;;;13.50;99.90;;;;;;5030414;28;20064;-73
2022/05/01 11:38:16;;;;;;;11.38;6.97;;;13.60;99.90;;;;;;5081933;28;20121;-73
2022/05/01 11:40:56;;;;;;;9.90;6.40;;;13.70;99.90;;;;;;5066662;28;20045;-74
2022/05/01 11:43:23;;;;;;;12.35;7.53;;;13.80;99.00;;;;;;5083825;28;20384;-74
2022/05/01 11:45:49;;;;;;;10.68;6.85;;;13.90;99.90;;;;;;5049920;28;20079;-74
2022/05/01 11:48:17;;;;;;;9.70;7.55;;;14.10;99.90;;;;;;5049078;28;20468;-74
2022/05/01 11:50:44;;;;;;;13.38;7.32;;;14.40;99.90;;;;;;5046461;28;20036;-74
2022/05/01 11:53:27;;;;;;;12.77;7.63;;;14.70;99.90;;;;;;5048700;28;20029;-73
2022/05/01 12:04:26;;;;;;;11.25;6.85;;;15.90;99.90;;;;;;5051532;28;20535;-74
2022/05/01 12:06:59;;;;;;;11.63;6.88;;;16.30;97.80;;;;;;5033619;28;20081;-73
2022/05/01 12:09:26;;;;;;;11.95;7.18;;;16.40;96.10;;;;;;5030454;28;20037;-73
2022/05/01 12:11:52;;;;;;;10.30;6.90;;;16.40;97.60;;;;;;5032965;28;20474;-73
2022/05/01 12:14:18;;;;;;;9.50;6.38;;;16.40;95.30;;;;;;5051257;28;20087;-74
2022/05/01 12:16:45;;;;;;;11.75;6.80;;;16.20;92.60;;;;;;5051224;28;20083;-73
2022/05/01 12:19:11;;;;;;;9.23;6.40;;;15.90;90.60;;;;;;5053362;28;20572;-73
2022/05/01 12:21:37;;;;;;;8.77;6.18;;;15.60;96.00;;;;;;5048399;28;20049;-73
2022/05/01 12:24:04;;;;;;;8.93;5.78;;;15.60;98.40;;;;;;5048832;28;20499;-73
2022/05/01 12:26:33;;;;;;;8.68;5.80;;;15.40;90.50;;;;;;5083063;28;20060;-73
2022/05/01 12:28:59;;;;;;;11.95;6.03;;;15.30;91.10;;;;;;5049343;28;20041;-72
2022/05/01 12:31:25;;;;;;;10.07;5.97;;;15.10;92.10;;;;;;5065336;28;20514;-71
2022/05/01 12:33:52;;;;;;;10.27;6.07;;;15.10;95.40;;;;;;5071319;28;20044;-72
2022/05/01 12:36:25;;;;;;;12.38;6.30;;;15.10;93.70;;;;;;5071191;28;20044;-73
2022/05/01 12:39:01;;;;;;;9.52;5.88;;;15.00;93.20;;;;;;5054863;28;20041;-73
2022/05/01 12:44:11;;;;;;;10.40;6.03;;;14.90;97.70;;;;;;5055574;28;20056;-74
2022/05/01 12:46:39;;;;;;;10.02;6.47;;;14.90;98.40;;;;;;5050336;28;20503;-72
2022/05/01 12:49:05;;;;;;;8.38;5.82;;;14.90;97.60;;;;;;5066954;28;20491;-72
2022/05/01 12:51:35;;;;;;;11.35;5.80;;;15.00;94.60;;;;;;5050460;28;20037;-72
2022/05/01 12:54:18;;;;;;;9.10;5.95;;;14.90;94.40;;;;;;5083320;28;20033;-73
2022/05/01 12:56:45;;;;;;;9.85;5.32;;;14.80;90.10;;;;;;5067564;28;20442;-73
2022/05/01 12:59:30;;;;;;;11.43;5.80;;;14.80;88.40;;;;;;5049442;28;20407;-73
2022/05/01 13:01:57;;;;;;;8.70;5.82;;;14.70;87.80;;;;;;5049401;28;20045;-74
2022/05/01 13:04:28;;;;;;;10.10;5.88;;;14.70;93.90;;;;;;5050212;28;20044;-74
2022/05/01 13:06:55;;;;;;;10.02;5.65;;;14.80;95.70;;;;;;5082718;28;20048;-73
2022/05/01 13:09:21;;;;;;;9.48;6.10;;;14.90;95.80;;;;;;5047090;28;20037;-72
2022/05/01 13:12:04;;;;;;;8.15;5.82;;;14.90;92.90;;;;;;5049254;28;20044;-72
2022/05/01 13:14:33;;;;;;;10.00;5.90;;;14.90;92.40;;;;;;5078769;28;20455;-73
2022/05/01 13:17:09;;;;;;;10.20;6.10;;;14.80;85.20;;;;;;5029753;28;20049;-73
2022/05/01 13:19:35;;;;;;;9.80;5.78;;;14.80;92.70;;;;;;5028735;28;20045;-74
2022/05/01 13:22:00;;;;;;;8.82;6.05;;;14.80;93.00;;;;;;5029787;28;20049;-73